createdAt,value
2018-06-01T00:00:10.500Z,96.61
2018-06-01T00:01:10.732Z,96.94
2018-06-01T00:02:10.967Z,96.51
2018-06-01T00:03:11.199Z,96.66
2018-06-01T00:04:11.442Z,96.75
2018-06-01T00:05:11.664Z,97.04
2018-06-01T00:06:11.894Z,96.75
2018-06-01T00:07:12.123Z,96.46
2018-06-01T00:08:12.354Z,96.22
2018-06-01T00:09:12.584Z,96.85
2018-06-01T00:10:12.816Z,96.85
2018-06-01T00:11:13.050Z,96.17
2018-06-01T00:12:13.276Z,96.37
2018-06-01T00:13:13.508Z,95.98
2018-06-01T00:14:13.740Z,95.60
2018-06-01T00:15:13.976Z,96.17
2018-06-01T00:16:14.211Z,95.50
2018-06-01T00:17:14.444Z,95.50
2018-06-01T00:18:14.677Z,95.21
2018-06-01T00:19:14.910Z,95.21
2018-06-01T00:20:15.151Z,95.79
2018-06-01T00:21:15.374Z,96.17
2018-06-01T00:22:15.607Z,96.27
2018-06-01T00:23:15.835Z,96.17
2018-06-01T00:24:16.067Z,95.79
2018-06-01T00:25:16.302Z,95.79
2018-06-01T00:26:16.529Z,96.17
2018-06-01T00:27:16.758Z,95.89
2018-06-01T00:28:16.988Z,96.94
2018-06-01T00:29:17.223Z,96.37
2018-06-01T00:30:17.452Z,96.61
2018-06-01T00:31:17.685Z,96.42
2018-06-01T00:32:17.914Z,96.70
2018-06-01T00:33:18.153Z,96.70
2018-06-01T00:34:18.380Z,96.70
2018-06-01T00:35:18.615Z,96.80
2018-06-01T00:36:18.845Z,96.80
2018-06-01T00:37:19.078Z,96.80
2018-06-01T00:38:19.307Z,96.03
2018-06-01T00:39:19.541Z,95.36
2018-06-01T00:40:19.772Z,94.87
2018-06-01T00:41:20.005Z,95.45
2018-06-01T00:42:20.231Z,95.17
2018-06-01T00:43:20.463Z,94.82
2018-06-01T00:44:20.697Z,95.40
2018-06-01T00:45:20.926Z,95.98
2018-06-01T00:46:21.157Z,95.89
2018-06-01T00:47:21.393Z,95.98
2018-06-01T00:48:21.634Z,96.22
2018-06-01T00:49:21.855Z,96.03
2018-06-01T00:50:22.087Z,96.32
2018-06-01T00:51:22.318Z,96.03
2018-06-01T00:52:22.540Z,95.89
2018-06-01T00:53:22.771Z,95.17
2018-06-01T00:54:23.007Z,95.55
2018-06-01T00:55:23.236Z,95.26
2018-06-01T00:56:23.465Z,95.55
2018-06-01T00:57:23.699Z,95.31
2018-06-01T00:58:23.928Z,96.22
2018-06-01T00:59:24.167Z,96.56
2018-06-01T01:00:24.397Z,96.46
2018-06-01T01:01:24.640Z,96.66
2018-06-01T01:02:24.855Z,96.56
2018-06-01T01:03:25.092Z,96.51
2018-06-01T01:04:25.318Z,96.61
2018-06-01T01:05:25.553Z,96.75
2018-06-01T01:06:25.787Z,96.42
2018-06-01T01:07:26.019Z,96.70
2018-06-01T01:08:26.247Z,96.80
2018-06-01T01:09:26.485Z,96.70
2018-06-01T01:10:26.720Z,96.70
2018-06-01T01:11:26.947Z,96.75
2018-06-01T01:12:27.172Z,96.32
2018-06-01T01:13:27.400Z,96.70
2018-06-01T01:14:27.655Z,96.61
2018-06-01T01:15:27.866Z,96.32
2018-06-01T01:16:28.097Z,96.42
2018-06-01T01:17:28.331Z,96.99
2018-06-01T01:18:28.569Z,97.09
2018-06-01T01:19:28.796Z,96.80
2018-06-01T01:20:29.027Z,96.51
2018-06-01T01:21:29.264Z,96.70
2018-06-01T01:22:29.490Z,96.61
2018-06-01T01:23:29.736Z,96.61
2018-06-01T01:24:29.956Z,96.32
2018-06-01T01:25:30.190Z,96.47
2018-06-01T01:26:30.416Z,96.70
2018-06-01T01:27:30.649Z,96.32
2018-06-01T01:28:30.886Z,96.22
2018-06-01T01:29:31.117Z,96.32
2018-06-01T01:30:31.348Z,95.65
2018-06-01T01:31:31.583Z,95.26
2018-06-01T01:32:31.815Z,95.55
2018-06-01T01:33:32.046Z,95.50
2018-06-01T01:34:32.279Z,95.55
2018-06-01T01:35:32.504Z,95.50
2018-06-01T01:36:32.740Z,95.26
2018-06-01T01:37:32.970Z,95.89
2018-06-01T01:38:33.191Z,95.94
2018-06-01T01:39:33.422Z,95.94
2018-06-01T01:40:33.655Z,96.08
2018-06-01T01:41:33.887Z,96.37
2018-06-01T01:42:34.143Z,96.03
2018-06-01T01:43:34.360Z,95.74
2018-06-01T01:44:34.614Z,95.60
2018-06-01T01:45:34.808Z,95.65
2018-06-01T01:46:35.068Z,95.50
2018-06-01T01:47:35.262Z,95.31
2018-06-01T01:48:35.496Z,95.94
2018-06-01T01:49:35.722Z,95.26
2018-06-01T01:50:35.961Z,95.70
2018-06-01T01:51:36.194Z,95.89
2018-06-01T01:52:36.421Z,95.50
2018-06-01T01:53:36.659Z,95.31
2018-06-01T01:54:36.890Z,95.31
2018-06-01T01:55:37.124Z,95.98
2018-06-01T01:56:37.357Z,96.08
2018-06-01T01:57:37.598Z,95.40
2018-06-01T01:58:37.816Z,95.60
2018-06-01T01:59:38.050Z,95.02
2018-06-01T02:00:38.285Z,95.50
2018-06-01T02:01:38.516Z,96.17
2018-06-01T02:02:38.755Z,96.27
2018-06-01T02:03:38.987Z,96.66
2018-06-01T02:04:39.195Z,96.85
2018-06-01T02:05:39.426Z,96.56
2018-06-01T02:06:39.658Z,96.17
2018-06-01T02:07:39.891Z,96.08
2018-06-01T02:08:40.128Z,95.79
2018-06-01T02:09:40.353Z,95.84
2018-06-01T02:10:40.584Z,95.36
2018-06-01T02:11:40.818Z,95.65
2018-06-01T02:12:41.051Z,95.65
2018-06-01T02:13:41.283Z,95.84
2018-06-01T02:14:41.506Z,94.68
2018-06-01T02:15:41.744Z,94.87
2018-06-01T02:16:41.972Z,94.87
2018-06-01T02:17:42.200Z,94.97
2018-06-01T02:18:42.439Z,94.87
2018-06-01T02:19:42.670Z,95.17
2018-06-01T02:20:42.903Z,94.59
2018-06-01T02:21:43.139Z,94.64
2018-06-01T02:22:43.361Z,95.79
2018-06-01T02:23:43.589Z,94.87
2018-06-01T02:24:43.821Z,96.56
2018-06-01T02:25:44.060Z,96.66
2018-06-01T02:26:44.290Z,96.66
2018-06-01T02:27:44.519Z,96.27
2018-06-01T02:28:44.751Z,96.08
2018-06-01T02:29:44.977Z,96.37
2018-06-01T02:30:45.216Z,96.56
2018-06-01T02:31:45.450Z,96.17
2018-06-01T02:32:45.684Z,96.27
2018-06-01T02:33:45.916Z,96.56
2018-06-01T02:34:46.147Z,96.47
2018-06-01T02:35:46.377Z,96.66
2018-06-01T02:36:46.609Z,96.66
2018-06-01T02:37:46.840Z,96.85
2018-06-01T02:38:47.076Z,97.42
2018-06-01T02:39:47.308Z,97.71
2018-06-01T02:40:47.551Z,97.42
2018-06-01T02:41:47.773Z,97.71
2018-06-01T02:42:48.001Z,97.38
2018-06-01T02:43:48.230Z,97.91
2018-06-01T02:44:48.462Z,97.52
2018-06-01T02:45:48.689Z,98.68
2018-06-01T02:46:48.922Z,99.06
2018-06-01T02:47:49.158Z,98.87
2018-06-01T02:48:49.401Z,99.83
2018-06-01T02:49:49.619Z,99.64
2018-06-01T02:50:49.850Z,99.26
2018-06-01T02:51:50.086Z,99.93
2018-06-01T02:52:50.319Z,99.73
2018-06-01T02:53:50.546Z,99.26
2018-06-01T02:54:50.778Z,99.35
2018-06-01T02:55:51.016Z,98.68
2018-06-01T02:56:51.244Z,97.81
2018-06-01T02:57:51.474Z,97.71
2018-06-01T02:58:51.707Z,97.62
2018-06-01T02:59:51.939Z,97.33
2018-06-01T03:00:52.172Z,97.42
2018-06-01T03:01:52.404Z,97.33
2018-06-01T03:02:52.634Z,98.10
2018-06-01T03:03:52.869Z,98.29
2018-06-01T03:04:53.100Z,97.91
2018-06-01T03:05:53.331Z,98.29
2018-06-01T03:06:53.564Z,98.29
2018-06-01T03:07:53.793Z,98.00
2018-06-01T03:08:54.024Z,98.19
2018-06-01T03:09:54.273Z,98.19
2018-06-01T03:10:54.494Z,98.19
2018-06-01T03:11:54.724Z,97.62
2018-06-01T03:12:54.956Z,97.81
2018-06-01T03:13:55.189Z,97.62
2018-06-01T03:14:55.428Z,97.96
2018-06-01T03:15:55.654Z,97.81
2018-06-01T03:16:55.885Z,97.67
2018-06-01T03:17:56.136Z,97.71
2018-06-01T03:18:56.349Z,97.09
2018-06-01T03:19:56.573Z,96.89
2018-06-01T03:20:56.806Z,97.09
2018-06-01T03:21:57.039Z,97.19
2018-06-01T03:22:57.273Z,96.70
2018-06-01T03:23:57.504Z,96.51
2018-06-01T03:24:57.734Z,96.51
2018-06-01T03:25:57.962Z,96.32
2018-06-01T03:26:58.194Z,96.32
2018-06-01T03:27:58.435Z,95.84
2018-06-01T03:28:58.662Z,96.80
2018-06-01T03:29:58.890Z,96.61
2018-06-01T03:30:59.130Z,96.51
2018-06-01T03:31:59.356Z,96.51
2018-06-01T03:32:59.592Z,96.42
2018-06-01T03:33:59.823Z,96.70
2018-06-01T03:35:00.060Z,96.61
2018-06-01T03:36:00.296Z,96.89
2018-06-01T03:37:00.516Z,96.80
2018-06-01T03:38:00.773Z,97.09
2018-06-01T03:39:00.982Z,97.19
2018-06-01T03:40:01.211Z,97.86
2018-06-01T03:41:01.451Z,98.05
2018-06-01T03:42:01.684Z,98.14
2018-06-01T03:43:01.918Z,98.19
2018-06-01T03:44:02.153Z,99.26
2018-06-01T03:45:02.383Z,99.26
2018-06-01T03:46:02.616Z,99.44
2018-06-01T03:47:02.849Z,98.77
2018-06-01T03:48:03.083Z,98.19
2018-06-01T03:49:03.317Z,98.29
2018-06-01T03:50:03.553Z,98.39
2018-06-01T03:51:03.776Z,98.05
2018-06-01T03:52:04.003Z,98.05
2018-06-01T03:53:04.245Z,98.05
2018-06-01T03:54:04.469Z,98.54
2018-06-01T03:55:04.698Z,98.54
2018-06-01T03:56:04.929Z,98.54
2018-06-01T03:57:05.162Z,98.24
2018-06-01T03:58:05.395Z,97.52
2018-06-01T03:59:05.627Z,97.72
2018-06-01T04:00:05.861Z,97.62
2018-06-01T04:01:06.097Z,97.09
2018-06-01T04:02:06.327Z,96.70
2018-06-01T04:03:06.560Z,96.75
2018-06-01T04:04:06.794Z,95.98
2018-06-01T04:05:07.027Z,95.50
2018-06-01T04:06:07.261Z,94.92
2018-06-01T04:07:07.495Z,94.96
2018-06-01T04:08:07.727Z,94.29
2018-06-01T04:09:07.954Z,93.37
2018-06-01T04:10:08.187Z,92.80
2018-06-01T04:11:08.418Z,91.30
2018-06-01T04:12:08.652Z,89.37
2018-06-01T04:13:08.888Z,90.05
2018-06-01T04:14:09.122Z,89.31
2018-06-01T04:15:09.361Z,88.83
2018-06-01T04:16:09.594Z,87.73
2018-06-01T04:17:09.822Z,88.25
2018-06-01T04:18:10.055Z,88.11
2018-06-01T04:19:10.294Z,89.37
2018-06-01T04:20:10.525Z,88.83
2018-06-01T04:21:10.765Z,87.77
2018-06-01T04:22:10.996Z,87.67
2018-06-01T04:23:11.229Z,87.58
2018-06-01T04:24:11.462Z,87.67
2018-06-01T04:25:11.703Z,86.42
2018-06-01T04:26:11.934Z,86.61
2018-06-01T04:27:12.170Z,86.80
2018-06-01T04:28:12.409Z,87.00
2018-06-01T04:29:12.647Z,87.19
2018-06-01T04:30:12.874Z,87.05
2018-06-01T04:31:13.108Z,87.63
2018-06-01T04:32:13.345Z,87.73
2018-06-01T04:33:13.586Z,88.02
2018-06-01T04:34:13.811Z,88.02
2018-06-01T04:35:14.048Z,87.92
2018-06-01T04:36:14.281Z,88.69
2018-06-01T04:37:14.509Z,88.11
2018-06-01T04:38:14.753Z,88.25
2018-06-01T04:39:14.997Z,88.64
2018-06-01T04:40:15.224Z,88.21
2018-06-01T04:41:15.461Z,88.64
2018-06-01T04:42:15.694Z,87.96
2018-06-01T04:43:15.923Z,87.96
2018-06-01T04:44:16.173Z,87.38
2018-06-01T04:45:16.388Z,86.85
2018-06-01T04:46:16.612Z,86.17
2018-06-01T04:47:16.848Z,85.63
2018-06-01T04:48:17.079Z,85.35
2018-06-01T04:49:17.370Z,84.52
2018-06-01T04:50:17.554Z,83.84
2018-06-01T04:51:17.780Z,84.27
2018-06-01T04:52:18.016Z,82.97
2018-06-01T04:53:18.252Z,82.62
2018-06-01T04:54:18.485Z,81.27
2018-06-01T04:55:18.713Z,81.21
2018-06-01T04:56:18.943Z,80.47
2018-06-01T04:57:19.192Z,79.74
2018-06-01T04:58:19.425Z,78.67
2018-06-01T04:59:19.658Z,77.36
2018-06-01T05:00:19.898Z,76.10
2018-06-01T05:01:20.131Z,76.78
2018-06-01T05:02:22.183Z,76.39
2018-06-01T05:03:20.543Z,75.45
2018-06-01T05:04:20.768Z,75.26
2018-06-01T05:05:21.015Z,75.23
2018-06-01T05:06:21.252Z,75.96
2018-06-01T05:07:21.489Z,77.37
2018-06-01T05:08:21.725Z,77.42
2018-06-01T05:09:21.961Z,77.19
2018-06-01T05:10:22.200Z,78.34
2018-06-01T05:11:22.435Z,78.74
2018-06-01T05:12:22.673Z,78.92
2018-06-01T05:13:22.908Z,79.27
2018-06-01T05:14:23.146Z,78.79
2018-06-01T05:15:23.386Z,79.43
2018-06-01T05:16:23.620Z,79.27
2018-06-01T05:17:23.854Z,79.62
2018-06-01T05:18:24.096Z,79.08
2018-06-01T05:19:24.322Z,79.08
2018-06-01T05:20:24.554Z,79.17
2018-06-01T05:21:24.785Z,79.27
2018-06-01T05:22:25.025Z,79.37
2018-06-01T05:23:25.255Z,79.27
2018-06-01T05:24:25.492Z,78.94
2018-06-01T05:25:25.723Z,78.46
2018-06-01T05:26:25.961Z,79.24
2018-06-01T05:27:26.195Z,79.04
2018-06-01T05:28:26.430Z,80.01
2018-06-01T05:29:26.671Z,80.20
2018-06-01T05:30:26.901Z,80.01
2018-06-01T05:31:27.143Z,80.40
2018-06-01T05:32:27.371Z,80.49
2018-06-01T05:33:27.609Z,80.88
2018-06-01T05:34:27.845Z,81.07
2018-06-01T05:35:28.080Z,80.82
2018-06-01T05:36:28.324Z,80.05
2018-06-01T05:37:28.549Z,80.15
2018-06-01T05:38:28.783Z,79.02
2018-06-01T05:39:29.020Z,78.92
2018-06-01T05:40:29.271Z,78.64
2018-06-01T05:41:29.492Z,78.00
2018-06-01T05:42:29.730Z,77.12
2018-06-01T05:43:29.965Z,77.22
2018-06-01T05:44:30.205Z,76.35
2018-06-01T05:45:30.433Z,76.45
2018-06-01T05:46:30.670Z,76.06
2018-06-01T05:47:30.904Z,75.87
2018-06-01T05:48:31.141Z,75.77
2018-06-01T05:49:31.375Z,75.96
2018-06-01T05:50:31.612Z,76.21
2018-06-01T05:51:31.850Z,76.31
2018-06-01T05:52:32.088Z,75.77
2018-06-01T05:53:32.323Z,75.48
2018-06-01T05:54:32.561Z,74.51
2018-06-01T05:55:32.795Z,73.54
2018-06-01T05:56:33.023Z,73.48
2018-06-01T05:57:33.270Z,73.90
2018-06-01T05:58:33.490Z,73.22
2018-06-01T05:59:33.720Z,72.67
2018-06-01T06:00:33.957Z,70.19
2018-06-01T06:01:34.185Z,70.12
2018-06-01T06:02:34.429Z,70.81
2018-06-01T06:03:34.655Z,69.93
2018-06-01T06:04:34.930Z,68.32
2018-06-01T06:05:35.118Z,68.54
2018-06-01T06:06:35.356Z,67.21
2018-06-01T06:07:35.590Z,66.63
2018-06-01T06:08:35.819Z,66.34
2018-06-01T06:09:36.064Z,65.56
2018-06-01T06:10:36.321Z,65.79
2018-06-01T06:11:36.558Z,65.66
2018-06-01T06:12:36.791Z,65.20
2018-06-01T06:13:37.060Z,64.17
2018-06-01T06:14:37.298Z,63.42
2018-06-01T06:15:37.508Z,63.32
2018-06-01T06:16:37.788Z,63.55
2018-06-01T06:17:37.975Z,63.62
2018-06-01T06:18:38.213Z,64.88
2018-06-01T06:19:38.452Z,65.82
2018-06-01T06:20:38.679Z,66.66
2018-06-01T06:21:38.926Z,67.70
2018-06-01T06:22:39.166Z,68.05
2018-06-01T06:23:39.400Z,69.02
2018-06-01T06:24:39.635Z,69.41
2018-06-01T06:25:39.878Z,69.76
2018-06-01T06:26:40.106Z,70.45
2018-06-01T06:27:40.349Z,71.28
2018-06-01T06:28:40.582Z,71.09
2018-06-01T06:29:40.818Z,71.93
2018-06-01T06:30:41.065Z,72.02
2018-06-01T06:31:41.302Z,72.57
2018-06-01T06:32:41.538Z,73.15
2018-06-01T06:33:41.771Z,73.54
2018-06-01T06:34:42.027Z,73.69
2018-06-01T06:35:42.266Z,75.05
2018-06-01T06:36:42.494Z,75.05
2018-06-01T06:37:42.773Z,75.70
2018-06-01T06:38:42.969Z,76.18
2018-06-01T06:39:43.199Z,76.43
2018-06-01T06:40:43.432Z,76.91
2018-06-01T06:41:43.670Z,77.65
2018-06-01T06:42:43.905Z,77.75
2018-06-01T06:43:44.139Z,78.23
2018-06-01T06:44:44.371Z,78.23
2018-06-01T06:45:44.614Z,77.65
2018-06-01T06:46:44.854Z,77.20
2018-06-01T06:47:45.086Z,75.24
2018-06-01T06:48:45.322Z,74.32
2018-06-01T06:49:45.557Z,74.32
2018-06-01T06:50:45.791Z,73.77
2018-06-01T06:51:46.033Z,72.51
2018-06-01T06:52:46.262Z,72.80
2018-06-01T06:53:46.492Z,72.71
2018-06-01T06:54:46.735Z,71.64
2018-06-01T06:55:46.969Z,72.31
2018-06-01T06:56:47.206Z,72.12
2018-06-01T06:57:47.433Z,71.73
2018-06-01T06:58:47.675Z,71.80
2018-06-01T06:59:47.916Z,72.47
2018-06-01T07:00:48.157Z,72.28
2018-06-01T07:01:48.392Z,72.47
2018-06-01T07:02:48.691Z,72.47
2018-06-01T07:03:48.855Z,72.38
2018-06-01T07:04:49.092Z,72.38
2018-06-01T07:05:49.327Z,72.53
2018-06-01T07:06:49.555Z,72.15
2018-06-01T07:07:49.791Z,72.92
2018-06-01T07:08:50.026Z,73.69
2018-06-01T07:09:50.259Z,73.69
2018-06-01T07:10:50.486Z,73.57
2018-06-01T07:11:50.726Z,74.43
2018-06-01T07:12:50.958Z,73.95
2018-06-01T07:13:51.189Z,73.95
2018-06-01T07:14:51.434Z,74.49
2018-06-01T07:15:51.669Z,74.40
2018-06-01T07:16:51.906Z,74.59
2018-06-01T07:17:52.140Z,75.17
2018-06-01T07:18:52.376Z,75.27
2018-06-01T07:19:52.618Z,75.46
2018-06-01T07:20:52.853Z,75.33
2018-06-01T07:21:53.089Z,76.10
2018-06-01T07:22:53.325Z,75.52
2018-06-01T07:23:53.556Z,75.81
2018-06-01T07:24:53.792Z,75.71
2018-06-01T07:25:54.036Z,75.71
2018-06-01T07:26:54.267Z,75.81
2018-06-01T07:27:54.497Z,76.29
2018-06-01T07:28:54.734Z,76.29
2018-06-01T07:29:54.993Z,75.81
2018-06-01T07:30:55.203Z,75.91
2018-06-01T07:31:55.438Z,76.39
2018-06-01T07:32:55.666Z,76.01
2018-06-01T07:33:55.896Z,75.13
2018-06-01T07:34:56.131Z,75.13
2018-06-01T07:35:56.368Z,75.81
2018-06-01T07:36:56.601Z,75.91
2018-06-01T07:37:56.835Z,76.39
2018-06-01T07:38:57.078Z,76.49
2018-06-01T07:39:57.336Z,75.87
2018-06-01T07:40:57.549Z,76.49
2018-06-01T07:41:57.781Z,76.87
2018-06-01T07:42:58.023Z,76.20
2018-06-01T07:43:58.255Z,76.10
2018-06-01T07:44:58.494Z,75.71
2018-06-01T07:45:58.720Z,75.81
2018-06-01T07:46:58.995Z,76.04
2018-06-01T07:47:59.206Z,75.27
2018-06-01T07:48:59.438Z,76.20
2018-06-01T07:49:59.675Z,75.43
2018-06-01T07:50:59.910Z,75.62
2018-06-01T07:52:00.145Z,74.94
2018-06-01T07:53:00.380Z,76.01
2018-06-01T07:54:00.609Z,75.91
2018-06-01T07:55:00.845Z,75.71
2018-06-01T07:56:01.084Z,75.81
2018-06-01T07:57:01.314Z,76.39
2018-06-01T07:58:01.547Z,76.10
2018-06-01T07:59:01.784Z,76.20
2018-06-01T08:00:02.018Z,76.43
2018-06-01T08:01:02.252Z,76.04
2018-06-01T08:02:02.488Z,75.46
2018-06-01T08:03:02.724Z,75.95
2018-06-01T08:04:02.966Z,76.33
2018-06-01T08:05:03.200Z,75.46
2018-06-01T08:06:03.431Z,75.37
2018-06-01T08:07:03.663Z,75.07
2018-06-01T08:08:03.895Z,75.07
2018-06-01T08:09:04.138Z,74.59
2018-06-01T08:10:04.366Z,74.21
2018-06-01T08:11:04.614Z,74.40
2018-06-01T08:12:04.830Z,74.98
2018-06-01T08:13:05.070Z,74.88
2018-06-01T08:14:05.304Z,74.88
2018-06-01T08:15:05.552Z,74.30
2018-06-01T08:16:05.764Z,74.59
2018-06-01T08:17:06.000Z,74.40
2018-06-01T08:18:06.234Z,74.11
2018-06-01T08:19:06.468Z,73.57
2018-06-01T08:20:06.705Z,73.95
2018-06-01T08:21:06.936Z,74.43
2018-06-01T08:22:07.171Z,73.66
2018-06-01T08:23:07.406Z,72.98
2018-06-01T08:24:07.653Z,73.75
2018-06-01T08:25:07.877Z,73.27
2018-06-01T08:26:08.113Z,73.99
2018-06-01T08:27:08.351Z,73.21
2018-06-01T08:28:08.617Z,72.44
2018-06-01T08:29:08.814Z,71.76
2018-06-01T08:30:09.051Z,71.86
2018-06-01T08:31:09.288Z,71.86
2018-06-01T08:32:09.521Z,71.76
2018-06-01T08:33:09.755Z,71.86
2018-06-01T08:34:09.989Z,70.98
2018-06-01T08:35:10.223Z,71.53
2018-06-01T08:36:10.459Z,71.86
2018-06-01T08:37:10.693Z,71.37
2018-06-01T08:38:10.924Z,71.18
2018-06-01T08:39:11.161Z,70.50
2018-06-01T08:40:11.394Z,70.86
2018-06-01T08:41:11.629Z,71.56
2018-06-01T08:42:11.868Z,70.98
2018-06-01T08:43:12.103Z,70.34
2018-06-01T08:44:12.341Z,70.05
2018-06-01T08:45:12.577Z,69.67
2018-06-01T08:46:12.813Z,70.44
2018-06-01T08:47:13.050Z,70.11
2018-06-01T08:48:13.289Z,70.40
2018-06-01T08:49:13.520Z,69.37
2018-06-01T08:50:13.755Z,69.57
2018-06-01T08:51:13.994Z,69.27
2018-06-01T08:52:14.232Z,69.37
2018-06-01T08:53:14.469Z,68.76
2018-06-01T08:54:14.705Z,68.79
2018-06-01T08:55:14.942Z,69.57
2018-06-01T08:56:15.178Z,69.76
2018-06-01T08:57:15.415Z,69.73
2018-06-01T08:58:15.653Z,69.85
2018-06-01T08:59:15.947Z,69.76
2018-06-01T09:00:16.120Z,70.34
2018-06-01T09:01:16.361Z,69.73
2018-06-01T09:02:16.610Z,70.63
2018-06-01T09:03:16.829Z,69.57
2018-06-01T09:04:17.067Z,69.76
2018-06-01T09:05:17.302Z,69.57
2018-06-01T09:06:17.542Z,69.08
2018-06-01T09:07:17.776Z,69.63
2018-06-01T09:08:18.013Z,69.37
2018-06-01T09:09:18.248Z,68.50
2018-06-01T09:10:18.557Z,69.47
2018-06-01T09:11:18.718Z,69.18
2018-06-01T09:12:18.948Z,68.50
2018-06-01T09:13:19.181Z,68.70
2018-06-01T09:14:19.416Z,68.99
2018-06-01T09:15:19.651Z,68.60
2018-06-01T09:16:19.890Z,68.12
2018-06-01T09:17:20.129Z,68.70
2018-06-01T09:18:20.363Z,68.54
2018-06-01T09:19:20.599Z,67.63
2018-06-01T09:20:20.828Z,69.41
2018-06-01T09:21:21.058Z,68.92
2018-06-01T09:22:21.290Z,68.54
2018-06-01T09:23:21.534Z,67.95
2018-06-01T09:24:21.766Z,68.44
2018-06-01T09:25:21.998Z,68.44
2018-06-01T09:26:22.237Z,67.95
2018-06-01T09:27:22.471Z,67.57
2018-06-01T09:28:22.730Z,67.27
2018-06-01T09:29:22.948Z,67.40
2018-06-01T09:30:23.181Z,67.37
2018-06-01T09:31:23.418Z,67.69
2018-06-01T09:32:23.658Z,66.63
2018-06-01T09:33:23.893Z,67.37
2018-06-01T09:34:24.162Z,67.40
2018-06-01T09:35:24.374Z,68.24
2018-06-01T09:36:24.601Z,67.31
2018-06-01T09:37:24.835Z,67.60
2018-06-01T09:38:25.075Z,67.60
2018-06-01T09:39:25.317Z,66.66
2018-06-01T09:40:25.549Z,67.34
2018-06-01T09:41:25.786Z,66.66
2018-06-01T09:42:26.024Z,66.56
2018-06-01T09:43:26.262Z,65.69
2018-06-01T09:44:26.497Z,64.82
2018-06-01T09:45:26.732Z,65.01
2018-06-01T09:46:26.970Z,64.92
2018-06-01T09:47:27.209Z,64.53
2018-06-01T09:48:27.445Z,65.98
2018-06-01T09:49:27.681Z,64.40
2018-06-01T09:50:27.920Z,64.72
2018-06-01T09:51:28.157Z,64.43
2018-06-01T09:52:28.391Z,64.43
2018-06-01T09:53:28.627Z,64.33
2018-06-01T09:54:28.865Z,64.43
2018-06-01T09:55:29.138Z,64.56
2018-06-01T09:56:29.337Z,63.98
2018-06-01T09:57:29.573Z,64.23
2018-06-01T09:58:29.815Z,64.53
2018-06-01T09:59:30.052Z,64.62
2018-06-01T10:00:30.291Z,64.46
2018-06-01T10:01:30.530Z,65.24
2018-06-01T10:02:30.769Z,64.56
2018-06-01T10:03:31.009Z,63.91
2018-06-01T10:04:31.242Z,63.81
2018-06-01T10:05:31.478Z,63.91
2018-06-01T10:06:31.719Z,63.36
2018-06-01T10:07:31.955Z,62.07
2018-06-01T10:08:32.194Z,62.94
2018-06-01T10:09:32.430Z,63.32
2018-06-01T10:10:32.669Z,63.32
2018-06-01T10:11:32.913Z,63.23
2018-06-01T10:12:33.138Z,63.26
2018-06-01T10:13:33.379Z,63.17
2018-06-01T10:14:33.618Z,62.65
2018-06-01T10:15:33.860Z,63.13
2018-06-01T10:16:34.086Z,63.04
2018-06-01T10:17:34.324Z,62.55
2018-06-01T10:18:34.563Z,62.45
2018-06-01T10:19:34.811Z,62.45
2018-06-01T10:20:35.036Z,62.45
2018-06-01T10:21:35.272Z,62.26
2018-06-01T10:22:35.514Z,62.55
2018-06-01T10:23:35.754Z,62.48
2018-06-01T10:24:35.986Z,62.19
2018-06-01T10:25:36.223Z,62.38
2018-06-01T10:26:36.482Z,61.71
2018-06-01T10:27:36.702Z,61.22
2018-06-01T10:28:36.939Z,61.02
2018-06-01T10:29:37.177Z,61.44
2018-06-01T10:30:37.413Z,61.64
2018-06-01T10:31:37.650Z,60.93
2018-06-01T10:32:37.886Z,61.32
2018-06-01T10:33:38.123Z,61.22
2018-06-01T10:34:38.357Z,60.54
2018-06-01T10:35:38.600Z,61.22
2018-06-01T10:36:38.837Z,60.54
2018-06-01T10:37:39.078Z,58.14
2018-06-01T10:38:39.318Z,60.25
2018-06-01T10:39:39.555Z,60.96
2018-06-01T10:40:39.791Z,60.83
2018-06-01T10:41:40.028Z,59.99
2018-06-01T10:42:40.266Z,58.72
2018-06-01T10:43:40.506Z,59.33
2018-06-01T10:44:40.745Z,60.41
2018-06-01T10:45:40.985Z,60.50
2018-06-01T10:46:41.227Z,59.05
2018-06-01T10:47:41.459Z,59.17
2018-06-01T10:48:41.698Z,58.95
2018-06-01T10:49:41.937Z,58.36
2018-06-01T10:50:42.173Z,59.23
2018-06-01T10:51:42.411Z,58.26
2018-06-01T10:52:42.651Z,59.63
2018-06-01T10:53:42.887Z,60.11
2018-06-01T10:54:43.122Z,58.26
2018-06-01T10:55:43.370Z,58.46
2018-06-01T10:56:43.608Z,57.90
2018-06-01T10:57:43.845Z,58.26
2018-06-01T10:58:44.082Z,58.69
2018-06-01T10:59:44.322Z,58.36
2018-06-01T11:00:44.559Z,57.51
2018-06-01T11:01:44.799Z,57.29
2018-06-01T11:02:45.033Z,57.39
2018-06-01T11:03:45.271Z,58.46
2018-06-01T11:04:45.508Z,57.29
2018-06-01T11:05:45.754Z,58.07
2018-06-01T11:06:45.983Z,57.10
2018-06-01T11:07:46.223Z,58.75
2018-06-01T11:08:46.467Z,58.26
2018-06-01T11:09:46.701Z,58.95
2018-06-01T11:10:46.937Z,57.97
2018-06-01T11:11:47.183Z,57.17
2018-06-01T11:12:47.421Z,57.78
2018-06-01T11:13:47.711Z,58.17
2018-06-01T11:14:47.901Z,57.49
2018-06-01T11:15:48.139Z,57.36
2018-06-01T11:16:48.376Z,57.36
2018-06-01T11:17:48.641Z,58.04
2018-06-01T11:18:48.842Z,58.59
2018-06-01T11:19:49.079Z,59.21
2018-06-01T11:20:49.318Z,58.82
2018-06-01T11:21:49.555Z,58.23
2018-06-01T11:22:49.797Z,59.05
2018-06-01T11:23:50.028Z,58.43
2018-06-01T11:24:50.267Z,59.14
2018-06-01T11:25:50.504Z,58.26
2018-06-01T11:26:50.741Z,59.14
2018-06-01T11:27:50.978Z,58.07
2018-06-01T11:28:51.216Z,59.43
2018-06-01T11:29:51.453Z,59.05
2018-06-01T11:30:51.691Z,59.14
2018-06-01T11:31:51.925Z,58.07
2018-06-01T11:32:52.166Z,59.27
2018-06-01T11:33:52.406Z,57.90
2018-06-01T11:34:52.634Z,57.71
2018-06-01T11:35:52.871Z,56.22
2018-06-01T11:36:53.108Z,57.39
2018-06-01T11:37:53.346Z,57.07
2018-06-01T11:38:53.590Z,57.95
2018-06-01T11:39:53.833Z,58.23
2018-06-01T11:40:54.063Z,58.14
2018-06-01T11:41:54.297Z,58.82
2018-06-01T11:42:54.537Z,58.56
2018-06-01T11:43:54.777Z,57.97
2018-06-01T11:44:55.019Z,57.87
2018-06-01T11:45:55.262Z,57.10
2018-06-01T11:46:55.499Z,57.20
2018-06-01T11:47:55.736Z,57.29
2018-06-01T11:48:55.974Z,57.22
2018-06-01T11:49:56.211Z,57.51
2018-06-01T11:50:56.445Z,57.51
2018-06-01T11:51:56.680Z,57.22
2018-06-01T11:52:56.919Z,57.22
2018-06-01T11:53:57.157Z,57.42
2018-06-01T11:54:57.393Z,57.20
2018-06-01T11:55:57.632Z,57.29
2018-06-01T11:56:57.873Z,56.15
2018-06-01T11:57:58.113Z,56.84
2018-06-01T11:58:58.352Z,57.12
2018-06-01T11:59:58.590Z,56.35
2018-06-01T12:00:58.824Z,57.22
2018-06-01T12:01:59.059Z,57.25
2018-06-01T12:02:59.296Z,57.32
2018-06-01T12:03:59.532Z,56.74
2018-06-01T12:04:59.772Z,55.96
2018-06-01T12:06:00.005Z,56.05
2018-06-01T12:07:00.249Z,55.83
2018-06-01T12:08:00.489Z,56.90
2018-06-01T12:09:00.721Z,57.29
2018-06-01T12:10:00.962Z,56.71
2018-06-01T12:11:01.267Z,56.71
2018-06-01T12:12:01.444Z,57.39
2018-06-01T12:13:01.686Z,56.61
2018-06-01T12:14:01.919Z,57.20
2018-06-01T12:15:02.165Z,57.78
2018-06-01T12:16:02.389Z,57.20
2018-06-01T12:17:02.624Z,57.10
2018-06-01T12:18:02.858Z,57.39
2018-06-01T12:19:03.101Z,57.39
2018-06-01T12:20:03.335Z,57.97
2018-06-01T12:21:03.572Z,56.81
2018-06-01T12:22:03.811Z,57.20
2018-06-01T12:23:04.051Z,57.29
2018-06-01T12:24:04.285Z,57.39
2018-06-01T12:25:04.525Z,57.32
2018-06-01T12:26:04.765Z,57.42
2018-06-01T12:27:05.001Z,56.93
2018-06-01T12:28:05.242Z,55.86
2018-06-01T12:29:05.501Z,56.05
2018-06-01T12:30:05.715Z,55.37
2018-06-01T12:31:05.953Z,55.18
2018-06-01T12:32:06.192Z,56.05
2018-06-01T12:33:06.433Z,56.35
2018-06-01T12:34:06.668Z,55.86
2018-06-01T12:35:06.909Z,56.45
2018-06-01T12:36:07.145Z,55.96
2018-06-01T12:37:07.382Z,56.47
2018-06-01T12:38:07.626Z,55.89
2018-06-01T12:39:07.866Z,55.50
2018-06-01T12:40:08.099Z,55.99
2018-06-01T12:41:08.335Z,56.25
2018-06-01T12:42:08.574Z,56.05
2018-06-01T12:43:08.819Z,56.32
2018-06-01T12:44:09.050Z,57.59
2018-06-01T12:45:09.291Z,56.90
2018-06-01T12:46:09.526Z,57.29
2018-06-01T12:47:09.761Z,57.20
2018-06-01T12:48:10.000Z,57.78
2018-06-01T12:49:10.239Z,57.49
2018-06-01T12:50:10.480Z,58.17
2018-06-01T12:51:10.717Z,57.68
2018-06-01T12:52:10.967Z,57.39
2018-06-01T12:53:11.200Z,57.71
2018-06-01T12:54:11.436Z,57.32
2018-06-01T12:55:11.670Z,56.84